sensor_id;sensor_type;location;lat;lon;timestamp;P1;durP1;ratioP1;P2;durP2;ratioP2
37931;SDS011;23758;42.640;23.302;2023-10-19T00:00:38;4.78;;;4.47;;
37931;SDS011;23758;42.640;23.302;2023-10-19T00:03:05;4.32;;;4.03;;
37931;SDS011;23758;42.640;23.302;2023-10-19T00:05:32;3.97;;;3.72;;
37931;SDS011;23758;42.640;23.302;2023-10-19T00:08:03;4.22;;;3.92;;
37931;SDS011;23758;42.640;23.302;2023-10-19T00:10:44;4.22;;;3.92;;
37931;SDS011;23758;42.640;23.302;2023-10-19T00:13:13;4.30;;;4.00;;
37931;SDS011;23758;42.640;23.302;2023-10-19T00:15:39;4.40;;;4.10;;
37931;SDS011;23758;42.640;23.302;2023-10-19T00:18:08;3.95;;;3.70;;
37931;SDS011;23758;42.640;23.302;2023-10-19T00:20:43;4.13;;;3.83;;
37931;SDS011;23758;42.640;23.302;2023-10-19T00:23:10;4.30;;;4.00;;
37931;SDS011;23758;42.640;23.302;2023-10-19T00:28:09;3.75;;;3.55;;
37931;SDS011;23758;42.640;23.302;2023-10-19T00:30:37;3.88;;;3.67;;
37931;SDS011;23758;42.640;23.302;2023-10-19T00:33:04;4.15;;;3.85;;
37931;SDS011;23758;42.640;23.302;2023-10-19T00:35:34;5.35;;;5.05;;
37931;SDS011;23758;42.640;23.302;2023-10-19T00:38:01;4.28;;;3.97;;
37931;SDS011;23758;42.640;23.302;2023-10-19T00:40:51;4.40;;;4.10;;
37931;SDS011;23758;42.640;23.302;2023-10-19T00:43:46;3.90;;;3.70;;
37931;SDS011;23758;42.640;23.302;2023-10-19T00:46:17;4.30;;;4.00;;
37931;SDS011;23758;42.640;23.302;2023-10-19T00:48:56;4.28;;;3.97;;
37931;SDS011;23758;42.640;23.302;2023-10-19T00:51:29;4.45;;;4.15;;
37931;SDS011;23758;42.640;23.302;2023-10-19T00:56:51;4.45;;;4.15;;
37931;SDS011;23758;42.640;23.302;2023-10-19T00:59:21;4.38;;;4.07;;
37931;SDS011;23758;42.640;23.302;2023-10-19T01:01:53;4.90;;;4.50;;
37931;SDS011;23758;42.640;23.302;2023-10-19T01:04:21;4.28;;;3.97;;
37931;SDS011;23758;42.640;23.302;2023-10-19T01:06:55;4.53;;;4.22;;
37931;SDS011;23758;42.640;23.302;2023-10-19T01:09:32;4.25;;;3.95;;
37931;SDS011;23758;42.640;23.302;2023-10-19T01:12:02;4.25;;;3.95;;
37931;SDS011;23758;42.640;23.302;2023-10-19T01:15:00;4.30;;;4.00;;
37931;SDS011;23758;42.640;23.302;2023-10-19T01:17:57;4.10;;;3.80;;
37931;SDS011;23758;42.640;23.302;2023-10-19T01:25:43;4.13;;;3.83;;
37931;SDS011;23758;42.640;23.302;2023-10-19T01:28:12;4.60;;;4.30;;
37931;SDS011;23758;42.640;23.302;2023-10-19T01:30:42;4.25;;;3.95;;
37931;SDS011;23758;42.640;23.302;2023-10-19T01:33:09;4.50;;;4.20;;
37931;SDS011;23758;42.640;23.302;2023-10-19T01:35:41;4.20;;;3.90;;
37931;SDS011;23758;42.640;23.302;2023-10-19T01:38:26;4.45;;;4.15;;
37931;SDS011;23758;42.640;23.302;2023-10-19T01:40:58;4.82;;;4.53;;
37931;SDS011;23758;42.640;23.302;2023-10-19T01:43:31;4.57;;;4.28;;
37931;SDS011;23758;42.640;23.302;2023-10-19T01:46:00;5.00;;;4.70;;
37931;SDS011;23758;42.640;23.302;2023-10-19T01:48:30;4.88;;;4.57;;
37931;SDS011;23758;42.640;23.302;2023-10-19T01:51:02;5.10;;;4.80;;
37931;SDS011;23758;42.640;23.302;2023-10-19T01:53:32;5.55;;;5.15;;
37931;SDS011;23758;42.640;23.302;2023-10-19T01:56:00;5.25;;;4.95;;
37931;SDS011;23758;42.640;23.302;2023-10-19T01:58:25;5.82;;;5.53;;
37931;SDS011;23758;42.640;23.302;2023-10-19T02:00:51;6.13;;;5.72;;
37931;SDS011;23758;42.640;23.302;2023-10-19T02:03:21;5.70;;;5.32;;
37931;SDS011;23758;42.640;23.302;2023-10-19T02:05:48;5.00;;;4.70;;
37931;SDS011;23758;42.640;23.302;2023-10-19T02:08:15;4.28;;;3.97;;
37931;SDS011;23758;42.640;23.302;2023-10-19T02:10:46;4.88;;;4.57;;
37931;SDS011;23758;42.640;23.302;2023-10-19T02:13:12;3.88;;;3.67;;
37931;SDS011;23758;42.640;23.302;2023-10-19T02:15:42;3.38;;;3.17;;
37931;SDS011;23758;42.640;23.302;2023-10-19T02:18:08;3.47;;;3.28;;
37931;SDS011;23758;42.640;23.302;2023-10-19T02:20:34;2.90;;;2.70;;
37931;SDS011;23758;42.640;23.302;2023-10-19T02:22:59;3.00;;;2.80;;
37931;SDS011;23758;42.640;23.302;2023-10-19T02:25:29;3.00;;;2.80;;
37931;SDS011;23758;42.640;23.302;2023-10-19T02:27:59;3.13;;;2.92;;
37931;SDS011;23758;42.640;23.302;2023-10-19T02:30:24;3.00;;;2.80;;
37931;SDS011;23758;42.640;23.302;2023-10-19T02:32:50;2.90;;;2.70;;
37931;SDS011;23758;42.640;23.302;2023-10-19T02:35:16;2.97;;;2.78;;
37931;SDS011;23758;42.640;23.302;2023-10-19T02:37:42;3.17;;;2.97;;
37931;SDS011;23758;42.640;23.302;2023-10-19T02:40:09;3.53;;;3.22;;
37931;SDS011;23758;42.640;23.302;2023-10-19T02:42:44;3.38;;;3.10;;
37931;SDS011;23758;42.640;23.302;2023-10-19T02:45:12;3.30;;;3.10;;
37931;SDS011;23758;42.640;23.302;2023-10-19T02:47:41;3.63;;;3.38;;
37931;SDS011;23758;42.640;23.302;2023-10-19T02:50:08;3.35;;;3.15;;
37931;SDS011;23758;42.640;23.302;2023-10-19T02:52:41;3.78;;;3.47;;
37931;SDS011;23758;42.640;23.302;2023-10-19T02:55:08;3.08;;;2.88;;
37931;SDS011;23758;42.640;23.302;2023-10-19T02:57:35;3.53;;;3.33;;
37931;SDS011;23758;42.640;23.302;2023-10-19T03:00:01;3.35;;;3.15;;
37931;SDS011;23758;42.640;23.302;2023-10-19T03:02:33;3.70;;;3.40;;
37931;SDS011;23758;42.640;23.302;2023-10-19T03:04:58;3.65;;;3.45;;
37931;SDS011;23758;42.640;23.302;2023-10-19T03:07:25;4.07;;;3.78;;
37931;SDS011;23758;42.640;23.302;2023-10-19T03:09:51;4.10;;;3.80;;
37931;SDS011;23758;42.640;23.302;2023-10-19T03:12:20;4.20;;;3.90;;
37931;SDS011;23758;42.640;23.302;2023-10-19T03:14:45;4.40;;;4.00;;
37931;SDS011;23758;42.640;23.302;2023-10-19T03:17:13;4.22;;;3.92;;
37931;SDS011;23758;42.640;23.302;2023-10-19T03:19:38;4.65;;;4.35;;
37931;SDS011;23758;42.640;23.302;2023-10-19T03:22:04;4.70;;;4.40;;
37931;SDS011;23758;42.640;23.302;2023-10-19T03:24:31;5.15;;;4.85;;
37931;SDS011;23758;42.640;23.302;2023-10-19T03:27:11;5.03;;;4.72;;
37931;SDS011;23758;42.640;23.302;2023-10-19T03:29:47;4.88;;;4.57;;
37931;SDS011;23758;42.640;23.302;2023-10-19T03:32:19;5.28;;;4.97;;
37931;SDS011;23758;42.640;23.302;2023-10-19T03:34:51;4.90;;;4.60;;
37931;SDS011;23758;42.640;23.302;2023-10-19T03:37:20;5.03;;;4.72;;
37931;SDS011;23758;42.640;23.302;2023-10-19T03:39:47;5.30;;;4.93;;
37931;SDS011;23758;42.640;23.302;2023-10-19T03:42:13;5.20;;;4.90;;
37931;SDS011;23758;42.640;23.302;2023-10-19T03:44:39;4.90;;;4.60;;
37931;SDS011;23758;42.640;23.302;2023-10-19T03:47:11;4.55;;;4.25;;
37931;SDS011;23758;42.640;23.302;2023-10-19T03:49:37;4.57;;;4.18;;
37931;SDS011;23758;42.640;23.302;2023-10-19T03:52:06;4.45;;;4.15;;
37931;SDS011;23758;42.640;23.302;2023-10-19T03:54:35;4.63;;;4.32;;
37931;SDS011;23758;42.640;23.302;2023-10-19T03:57:08;4.40;;;4.10;;
37931;SDS011;23758;42.640;23.302;2023-10-19T03:59:41;4.22;;;3.92;;
37931;SDS011;23758;42.640;23.302;2023-10-19T04:02:09;4.50;;;4.20;;
37931;SDS011;23758;42.640;23.302;2023-10-19T04:04:38;4.22;;;3.92;;
37931;SDS011;23758;42.640;23.302;2023-10-19T04:07:08;4.10;;;3.80;;
37931;SDS011;23758;42.640;23.302;2023-10-19T04:09:49;4.03;;;3.80;;
37931;SDS011;23758;42.640;23.302;2023-10-19T04:12:29;4.20;;;3.90;;
37931;SDS011;23758;42.640;23.302;2023-10-19T04:14:55;3.92;;;3.67;;
37931;SDS011;23758;42.640;23.302;2023-10-19T04:17:21;4.05;;;3.78;;
37931;SDS011;23758;42.640;23.302;2023-10-19T04:19:49;3.97;;;3.67;;
37931;SDS011;23758;42.640;23.302;2023-10-19T04:22:17;3.95;;;3.70;;
37931;SDS011;23758;42.640;23.302;2023-10-19T04:24:51;3.90;;;3.70;;
37931;SDS011;23758;42.640;23.302;2023-10-19T04:27:17;4.10;;;3.80;;
37931;SDS011;23758;42.640;23.302;2023-10-19T04:29:46;4.13;;;3.83;;
37931;SDS011;23758;42.640;23.302;2023-10-19T04:32:14;3.72;;;3.50;;
37931;SDS011;23758;42.640;23.302;2023-10-19T04:34:40;4.13;;;3.83;;
37931;SDS011;23758;42.640;23.302;2023-10-19T04:37:06;3.78;;;3.58;;
37931;SDS011;23758;42.640;23.302;2023-10-19T04:39:32;3.60;;;3.40;;
37931;SDS011;23758;42.640;23.302;2023-10-19T04:41:59;4.20;;;3.90;;
37931;SDS011;23758;42.640;23.302;2023-10-19T04:44:25;3.80;;;3.50;;
37931;SDS011;23758;42.640;23.302;2023-10-19T04:46:50;3.83;;;3.58;;
37931;SDS011;23758;42.640;23.302;2023-10-19T04:49:16;4.00;;;3.70;;
37931;SDS011;23758;42.640;23.302;2023-10-19T04:51:41;3.80;;;3.60;;
37931;SDS011;23758;42.640;23.302;2023-10-19T04:54:08;3.90;;;3.60;;
37931;SDS011;23758;42.640;23.302;2023-10-19T04:56:34;4.00;;;3.72;;
37931;SDS011;23758;42.640;23.302;2023-10-19T04:59:01;4.07;;;3.72;;
37931;SDS011;23758;42.640;23.302;2023-10-19T05:01:27;3.65;;;3.45;;
37931;SDS011;23758;42.640;23.302;2023-10-19T05:03:53;3.80;;;3.60;;
37931;SDS011;23758;42.640;23.302;2023-10-19T05:06:19;3.60;;;3.40;;
37931;SDS011;23758;42.640;23.302;2023-10-19T05:08:44;3.63;;;3.42;;
37931;SDS011;23758;42.640;23.302;2023-10-19T05:11:11;3.63;;;3.42;;
37931;SDS011;23758;42.640;23.302;2023-10-19T05:13:37;5.88;;;3.70;;
37931;SDS011;23758;42.640;23.302;2023-10-19T05:16:04;4.07;;;3.78;;
37931;SDS011;23758;42.640;23.302;2023-10-19T05:18:30;4.57;;;3.80;;
37931;SDS011;23758;42.640;23.302;2023-10-19T05:20:55;4.20;;;3.90;;
37931;SDS011;23758;42.640;23.302;2023-10-19T05:23:24;5.20;;;4.80;;
37931;SDS011;23758;42.640;23.302;2023-10-19T05:25:53;4.40;;;4.10;;
37931;SDS011;23758;42.640;23.302;2023-10-19T05:28:25;4.55;;;4.25;;
37931;SDS011;23758;42.640;23.302;2023-10-19T05:30:51;4.70;;;4.40;;
37931;SDS011;23758;42.640;23.302;2023-10-19T05:33:16;5.30;;;5.00;;
37931;SDS011;23758;42.640;23.302;2023-10-19T05:35:46;5.00;;;4.70;;
37931;SDS011;23758;42.640;23.302;2023-10-19T05:38:14;5.30;;;5.00;;
37931;SDS011;23758;42.640;23.302;2023-10-19T05:40:41;5.07;;;4.78;;
37931;SDS011;23758;42.640;23.302;2023-10-19T05:43:08;4.88;;;4.57;;
37931;SDS011;23758;42.640;23.302;2023-10-19T05:45:34;5.13;;;4.78;;
37931;SDS011;23758;42.640;23.302;2023-10-19T05:48:01;4.68;;;4.38;;
37931;SDS011;23758;42.640;23.302;2023-10-19T05:50:29;4.18;;;3.90;;
37931;SDS011;23758;42.640;23.302;2023-10-19T05:52:54;4.72;;;4.43;;
37931;SDS011;23758;42.640;23.302;2023-10-19T05:55:20;4.45;;;4.13;;
37931;SDS011;23758;42.640;23.302;2023-10-19T05:57:48;4.22;;;3.92;;
37931;SDS011;23758;42.640;23.302;2023-10-19T06:00:14;3.97;;;3.67;;
37931;SDS011;23758;42.640;23.302;2023-10-19T06:02:47;3.35;;;3.15;;
37931;SDS011;23758;42.640;23.302;2023-10-19T06:05:14;3.38;;;3.17;;
37931;SDS011;23758;42.640;23.302;2023-10-19T06:07:44;3.97;;;3.67;;
37931;SDS011;23758;42.640;23.302;2023-10-19T06:10:14;4.45;;;4.07;;
37931;SDS011;23758;42.640;23.302;2023-10-19T06:12:43;3.53;;;3.22;;
37931;SDS011;23758;42.640;23.302;2023-10-19T06:15:10;3.75;;;3.45;;
37931;SDS011;23758;42.640;23.302;2023-10-19T06:17:37;3.45;;;3.25;;
37931;SDS011;23758;42.640;23.302;2023-10-19T06:20:05;3.63;;;3.33;;
37931;SDS011;23758;42.640;23.302;2023-10-19T06:22:32;3.47;;;3.28;;
37931;SDS011;23758;42.640;23.302;2023-10-19T06:24:58;3.65;;;3.35;;
37931;SDS011;23758;42.640;23.302;2023-10-19T06:27:24;3.63;;;3.33;;
37931;SDS011;23758;42.640;23.302;2023-10-19T06:29:49;3.63;;;3.33;;
37931;SDS011;23758;42.640;23.302;2023-10-19T06:32:15;3.92;;;3.63;;
37931;SDS011;23758;42.640;23.302;2023-10-19T06:34:40;3.70;;;3.45;;
37931;SDS011;23758;42.640;23.302;2023-10-19T06:37:06;3.95;;;3.53;;
37931;SDS011;23758;42.640;23.302;2023-10-19T06:39:33;4.30;;;3.90;;
37931;SDS011;23758;42.640;23.302;2023-10-19T06:41:59;4.13;;;3.80;;
37931;SDS011;23758;42.640;23.302;2023-10-19T06:44:24;3.92;;;3.53;;
37931;SDS011;23758;42.640;23.302;2023-10-19T06:46:50;3.33;;;3.13;;
37931;SDS011;23758;42.640;23.302;2023-10-19T06:49:15;3.55;;;3.30;;
37931;SDS011;23758;42.640;23.302;2023-10-19T06:51:42;3.28;;;3.08;;
37931;SDS011;23758;42.640;23.302;2023-10-19T06:54:08;3.45;;;3.20;;
37931;SDS011;23758;42.640;23.302;2023-10-19T06:56:33;3.20;;;3.00;;
37931;SDS011;23758;42.640;23.302;2023-10-19T06:59:02;3.83;;;3.63;;
37931;SDS011;23758;42.640;23.302;2023-10-19T07:01:30;3.70;;;3.40;;
37931;SDS011;23758;42.640;23.302;2023-10-19T07:03:57;3.15;;;2.95;;
37931;SDS011;23758;42.640;23.302;2023-10-19T07:06:23;3.42;;;3.22;;
37931;SDS011;23758;42.640;23.302;2023-10-19T07:08:49;3.67;;;3.28;;
37931;SDS011;23758;42.640;23.302;2023-10-19T07:11:14;3.67;;;3.28;;
37931;SDS011;23758;42.640;23.302;2023-10-19T07:13:39;2.72;;;2.53;;
37931;SDS011;23758;42.640;23.302;2023-10-19T07:16:05;2.97;;;2.78;;
37931;SDS011;23758;42.640;23.302;2023-10-19T07:18:31;3.08;;;2.65;;
37931;SDS011;23758;42.640;23.302;2023-10-19T07:20:56;3.10;;;2.90;;
37931;SDS011;23758;42.640;23.302;2023-10-19T07:23:28;2.95;;;2.75;;
37931;SDS011;23758;42.640;23.302;2023-10-19T07:25:54;2.60;;;2.40;;
37931;SDS011;23758;42.640;23.302;2023-10-19T07:28:21;2.20;;;2.10;;
37931;SDS011;23758;42.640;23.302;2023-10-19T07:30:47;2.40;;;2.30;;
37931;SDS011;23758;42.640;23.302;2023-10-19T07:33:15;2.38;;;2.20;;
37931;SDS011;23758;42.640;23.302;2023-10-19T07:35:44;2.60;;;2.40;;
37931;SDS011;23758;42.640;23.302;2023-10-19T07:38:13;2.47;;;2.35;;
37931;SDS011;23758;42.640;23.302;2023-10-19T07:40:39;2.85;;;2.60;;
37931;SDS011;23758;42.640;23.302;2023-10-19T07:43:05;2.30;;;2.20;;
37931;SDS011;23758;42.640;23.302;2023-10-19T07:45:31;2.30;;;2.20;;
37931;SDS011;23758;42.640;23.302;2023-10-19T07:47:59;3.60;;;2.78;;
37931;SDS011;23758;42.640;23.302;2023-10-19T07:50:31;2.50;;;2.30;;
37931;SDS011;23758;42.640;23.302;2023-10-19T07:52:58;3.33;;;3.13;;
37931;SDS011;23758;42.640;23.302;2023-10-19T07:55:23;2.70;;;2.50;;
37931;SDS011;23758;42.640;23.302;2023-10-19T07:57:49;2.65;;;2.45;;
37931;SDS011;23758;42.640;23.302;2023-10-19T08:00:15;2.38;;;2.25;;
37931;SDS011;23758;42.640;23.302;2023-10-19T08:02:42;2.60;;;2.40;;
37931;SDS011;23758;42.640;23.302;2023-10-19T08:05:10;2.67;;;2.35;;
37931;SDS011;23758;42.640;23.302;2023-10-19T08:07:37;2.33;;;2.22;;
37931;SDS011;23758;42.640;23.302;2023-10-19T08:10:05;2.70;;;2.50;;
37931;SDS011;23758;42.640;23.302;2023-10-19T08:12:31;2.95;;;2.65;;
37931;SDS011;23758;42.640;23.302;2023-10-19T08:14:58;2.92;;;2.72;;
37931;SDS011;23758;42.640;23.302;2023-10-19T08:17:24;2.75;;;2.55;;
37931;SDS011;23758;42.640;23.302;2023-10-19T08:19:49;2.90;;;2.70;;
37931;SDS011;23758;42.640;23.302;2023-10-19T08:22:15;2.60;;;2.45;;
37931;SDS011;23758;42.640;23.302;2023-10-19T08:24:41;3.33;;;3.03;;
37931;SDS011;23758;42.640;23.302;2023-10-19T08:27:11;2.85;;;2.65;;
37931;SDS011;23758;42.640;23.302;2023-10-19T08:29:38;2.90;;;2.67;;
37931;SDS011;23758;42.640;23.302;2023-10-19T08:32:03;2.97;;;2.78;;
37931;SDS011;23758;42.640;23.302;2023-10-19T08:34:29;2.60;;;2.40;;
37931;SDS011;23758;42.640;23.302;2023-10-19T08:37:00;2.63;;;2.42;;
37931;SDS011;23758;42.640;23.302;2023-10-19T08:39:26;2.60;;;2.40;;
37931;SDS011;23758;42.640;23.302;2023-10-19T08:41:52;2.63;;;2.42;;
37931;SDS011;23758;42.640;23.302;2023-10-19T08:44:19;2.80;;;2.60;;
37931;SDS011;23758;42.640;23.302;2023-10-19T08:46:45;2.80;;;2.60;;
37931;SDS011;23758;42.640;23.302;2023-10-19T08:49:12;2.30;;;2.20;;
37931;SDS011;23758;42.640;23.302;2023-10-19T08:51:44;2.58;;;2.38;;
37931;SDS011;23758;42.640;23.302;2023-10-19T08:54:14;2.25;;;2.15;;
37931;SDS011;23758;42.640;23.302;2023-10-19T08:56:40;2.70;;;2.50;;
37931;SDS011;23758;42.640;23.302;2023-10-19T08:59:10;2.80;;;2.60;;
37931;SDS011;23758;42.640;23.302;2023-10-19T09:01:36;2.38;;;2.28;;
37931;SDS011;23758;42.640;23.302;2023-10-19T09:04:02;2.47;;;2.33;;
37931;SDS011;23758;42.640;23.302;2023-10-19T09:06:27;4.18;;;2.75;;
37931;SDS011;23758;42.640;23.302;2023-10-19T09:08:54;5.32;;;2.60;;
37931;SDS011;23758;42.640;23.302;2023-10-19T09:11:20;3.20;;;2.90;;
37931;SDS011;23758;42.640;23.302;2023-10-19T09:13:50;2.80;;;2.60;;
37931;SDS011;23758;42.640;23.302;2023-10-19T09:16:17;3.05;;;2.85;;
37931;SDS011;23758;42.640;23.302;2023-10-19T09:18:44;2.80;;;2.60;;
37931;SDS011;23758;42.640;23.302;2023-10-19T09:21:11;2.80;;;2.60;;
37931;SDS011;23758;42.640;23.302;2023-10-19T09:23:49;2.30;;;2.20;;
37931;SDS011;23758;42.640;23.302;2023-10-19T09:26:15;2.50;;;2.30;;
37931;SDS011;23758;42.640;23.302;2023-10-19T09:28:41;2.30;;;2.20;;
37931;SDS011;23758;42.640;23.302;2023-10-19T09:31:07;2.28;;;2.17;;
37931;SDS011;23758;42.640;23.302;2023-10-19T09:33:34;2.40;;;2.30;;
37931;SDS011;23758;42.640;23.302;2023-10-19T09:36:01;2.90;;;2.70;;
37931;SDS011;23758;42.640;23.302;2023-10-19T09:38:29;2.83;;;2.45;;
37931;SDS011;23758;42.640;23.302;2023-10-19T09:40:55;2.55;;;2.35;;
37931;SDS011;23758;42.640;23.302;2023-10-19T09:46:07;2.58;;;2.38;;
37931;SDS011;23758;42.640;23.302;2023-10-19T09:48:41;2.60;;;2.40;;
37931;SDS011;23758;42.640;23.302;2023-10-19T09:51:13;2.67;;;2.47;;
37931;SDS011;23758;42.640;23.302;2023-10-19T09:53:41;2.30;;;2.20;;
37931;SDS011;23758;42.640;23.302;2023-10-19T09:56:08;2.65;;;2.45;;
37931;SDS011;23758;42.640;23.302;2023-10-19T09:58:40;2.70;;;2.50;;
37931;SDS011;23758;42.640;23.302;2023-10-19T10:01:10;2.80;;;2.60;;
37931;SDS011;23758;42.640;23.302;2023-10-19T10:07:02;2.10;;;2.00;;
37931;SDS011;23758;42.640;23.302;2023-10-19T10:09:20;2.55;;;2.35;;
37931;SDS011;23758;42.640;23.302;2023-10-19T10:11:49;2.00;;;1.90;;
37931;SDS011;23758;42.640;23.302;2023-10-19T10:14:25;2.13;;;2.03;;
37931;SDS011;23758;42.640;23.302;2023-10-19T10:17:00;2.10;;;2.00;;
37931;SDS011;23758;42.640;23.302;2023-10-19T10:19:26;2.10;;;2.00;;
37931;SDS011;23758;42.640;23.302;2023-10-19T10:22:25;2.20;;;2.10;;
37931;SDS011;23758;42.640;23.302;2023-10-19T10:24:46;2.20;;;2.10;;
37931;SDS011;23758;42.640;23.302;2023-10-19T10:27:16;2.70;;;2.20;;
37931;SDS011;23758;42.640;23.302;2023-10-19T10:29:57;2.72;;;2.40;;
37931;SDS011;23758;42.640;23.302;2023-10-19T10:32:47;2.17;;;2.08;;
37931;SDS011;23758;42.640;23.302;2023-10-19T10:37:59;2.30;;;2.20;;
37931;SDS011;23758;42.640;23.302;2023-10-19T10:40:24;2.65;;;2.45;;
37931;SDS011;23758;42.640;23.302;2023-10-19T10:43:03;2.20;;;2.10;;
37931;SDS011;23758;42.640;23.302;2023-10-19T10:45:30;2.13;;;2.03;;
37931;SDS011;23758;42.640;23.302;2023-10-19T10:47:56;2.17;;;2.08;;
37931;SDS011;23758;42.640;23.302;2023-10-19T10:50:21;2.33;;;2.17;;
37931;SDS011;23758;42.640;23.302;2023-10-19T10:52:46;2.28;;;2.17;;
37931;SDS011;23758;42.640;23.302;2023-10-19T10:55:13;2.17;;;2.08;;
37931;SDS011;23758;42.640;23.302;2023-10-19T10:57:40;2.65;;;2.45;;
37931;SDS011;23758;42.640;23.302;2023-10-19T11:02:36;2.40;;;2.20;;
37931;SDS011;23758;42.640;23.302;2023-10-19T11:05:07;2.35;;;2.20;;
37931;SDS011;23758;42.640;23.302;2023-10-19T11:07:36;2.13;;;2.03;;
37931;SDS011;23758;42.640;23.302;2023-10-19T11:10:05;2.13;;;2.03;;
37931;SDS011;23758;42.640;23.302;2023-10-19T11:12:31;2.40;;;2.30;;
37931;SDS011;23758;42.640;23.302;2023-10-19T11:14:58;2.50;;;2.30;;
37931;SDS011;23758;42.640;23.302;2023-10-19T11:17:24;2.25;;;2.15;;
37931;SDS011;23758;42.640;23.302;2023-10-19T11:19:55;2.00;;;1.90;;
37931;SDS011;23758;42.640;23.302;2023-10-19T11:22:22;2.20;;;2.10;;
37931;SDS011;23758;42.640;23.302;2023-10-19T11:24:50;2.22;;;2.13;;
37931;SDS011;23758;42.640;23.302;2023-10-19T11:27:26;2.20;;;2.10;;
37931;SDS011;23758;42.640;23.302;2023-10-19T11:29:58;2.00;;;1.90;;
37931;SDS011;23758;42.640;23.302;2023-10-19T11:32:35;2.05;;;1.95;;
37931;SDS011;23758;42.640;23.302;2023-10-19T11:35:03;2.00;;;1.90;;
37931;SDS011;23758;42.640;23.302;2023-10-19T11:37:29;2.10;;;2.00;;
37931;SDS011;23758;42.640;23.302;2023-10-19T11:39:54;2.75;;;2.55;;
37931;SDS011;23758;42.640;23.302;2023-10-19T11:42:20;2.63;;;2.42;;
37931;SDS011;23758;42.640;23.302;2023-10-19T11:44:45;2.00;;;1.90;;
37931;SDS011;23758;42.640;23.302;2023-10-19T11:47:11;2.00;;;1.90;;
37931;SDS011;23758;42.640;23.302;2023-10-19T11:49:38;2.10;;;2.00;;
37931;SDS011;23758;42.640;23.302;2023-10-19T11:52:05;2.28;;;2.10;;
37931;SDS011;23758;42.640;23.302;2023-10-19T11:54:32;2.50;;;2.30;;
37931;SDS011;23758;42.640;23.302;2023-10-19T11:56:58;2.10;;;2.00;;
37931;SDS011;23758;42.640;23.302;2023-10-19T11:59:24;2.10;;;2.00;;
37931;SDS011;23758;42.640;23.302;2023-10-19T12:01:51;2.67;;;2.47;;
37931;SDS011;23758;42.640;23.302;2023-10-19T12:04:17;2.50;;;2.30;;
37931;SDS011;23758;42.640;23.302;2023-10-19T12:06:43;2.20;;;2.10;;
37931;SDS011;23758;42.640;23.302;2023-10-19T12:09:09;2.10;;;2.00;;
37931;SDS011;23758;42.640;23.302;2023-10-19T12:11:43;2.22;;;2.13;;
37931;SDS011;23758;42.640;23.302;2023-10-19T12:14:09;2.55;;;2.35;;
37931;SDS011;23758;42.640;23.302;2023-10-19T12:16:40;2.13;;;2.03;;
37931;SDS011;23758;42.640;23.302;2023-10-19T12:19:05;2.00;;;1.90;;
37931;SDS011;23758;42.640;23.302;2023-10-19T12:21:33;2.10;;;2.00;;
37931;SDS011;23758;42.640;23.302;2023-10-19T12:23:59;2.20;;;2.10;;
37931;SDS011;23758;42.640;23.302;2023-10-19T12:26:26;2.40;;;2.20;;
37931;SDS011;23758;42.640;23.302;2023-10-19T12:28:52;2.20;;;2.10;;
37931;SDS011;23758;42.640;23.302;2023-10-19T12:31:17;2.10;;;2.00;;
37931;SDS011;23758;42.640;23.302;2023-10-19T12:33:43;2.03;;;1.92;;
37931;SDS011;23758;42.640;23.302;2023-10-19T12:36:10;2.45;;;2.25;;
37931;SDS011;23758;42.640;23.302;2023-10-19T12:38:53;3.78;;;2.20;;
37931;SDS011;23758;42.640;23.302;2023-10-19T12:41:20;2.95;;;2.40;;
37931;SDS011;23758;42.640;23.302;2023-10-19T12:43:46;2.00;;;1.90;;
37931;SDS011;23758;42.640;23.302;2023-10-19T12:46:12;2.40;;;2.20;;
37931;SDS011;23758;42.640;23.302;2023-10-19T12:48:39;2.30;;;2.20;;
37931;SDS011;23758;42.640;23.302;2023-10-19T12:51:05;2.10;;;2.00;;
37931;SDS011;23758;42.640;23.302;2023-10-19T12:53:37;2.30;;;2.10;;
37931;SDS011;23758;42.640;23.302;2023-10-19T12:56:04;2.30;;;2.10;;
37931;SDS011;23758;42.640;23.302;2023-10-19T12:58:30;2.10;;;2.00;;
37931;SDS011;23758;42.640;23.302;2023-10-19T13:00:57;2.20;;;2.10;;
37931;SDS011;23758;42.640;23.302;2023-10-19T13:03:23;2.00;;;1.90;;
37931;SDS011;23758;42.640;23.302;2023-10-19T13:05:52;2.20;;;2.10;;
37931;SDS011;23758;42.640;23.302;2023-10-19T13:08:18;2.25;;;2.15;;
37931;SDS011;23758;42.640;23.302;2023-10-19T13:10:45;2.15;;;2.05;;
37931;SDS011;23758;42.640;23.302;2023-10-19T13:13:13;2.17;;;2.08;;
37931;SDS011;23758;42.640;23.302;2023-10-19T13:15:43;2.20;;;2.10;;
37931;SDS011;23758;42.640;23.302;2023-10-19T13:18:10;2.22;;;2.13;;
37931;SDS011;23758;42.640;23.302;2023-10-19T13:20:37;2.35;;;2.15;;
37931;SDS011;23758;42.640;23.302;2023-10-19T13:23:04;3.38;;;2.75;;
37931;SDS011;23758;42.640;23.302;2023-10-19T13:25:36;2.33;;;2.13;;
37931;SDS011;23758;42.640;23.302;2023-10-19T13:28:15;2.75;;;2.50;;
37931;SDS011;23758;42.640;23.302;2023-10-19T13:30:43;2.10;;;2.00;;
37931;SDS011;23758;42.640;23.302;2023-10-19T13:33:12;2.10;;;2.00;;
37931;SDS011;23758;42.640;23.302;2023-10-19T13:35:39;2.13;;;2.03;;
37931;SDS011;23758;42.640;23.302;2023-10-19T13:38:09;2.15;;;2.05;;
37931;SDS011;23758;42.640;23.302;2023-10-19T13:40:36;2.00;;;1.90;;
37931;SDS011;23758;42.640;23.302;2023-10-19T13:43:03;1.95;;;1.85;;
37931;SDS011;23758;42.640;23.302;2023-10-19T13:45:33;2.03;;;1.92;;
37931;SDS011;23758;42.640;23.302;2023-10-19T13:48:00;2.08;;;1.90;;
37931;SDS011;23758;42.640;23.302;2023-10-19T13:50:33;2.03;;;1.92;;
37931;SDS011;23758;42.640;23.302;2023-10-19T13:53:00;3.70;;;2.65;;
37931;SDS011;23758;42.640;23.302;2023-10-19T13:55:27;2.30;;;2.10;;
37931;SDS011;23758;42.640;23.302;2023-10-19T13:57:53;1.90;;;1.80;;
37931;SDS011;23758;42.640;23.302;2023-10-19T14:00:21;1.92;;;1.83;;
37931;SDS011;23758;42.640;23.302;2023-10-19T14:03:00;2.35;;;2.20;;
37931;SDS011;23758;42.640;23.302;2023-10-19T14:05:27;1.90;;;1.80;;
37931;SDS011;23758;42.640;23.302;2023-10-19T14:07:53;1.90;;;1.80;;
37931;SDS011;23758;42.640;23.302;2023-10-19T14:10:19;2.15;;;2.05;;
37931;SDS011;23758;42.640;23.302;2023-10-19T14:12:48;2.13;;;1.95;;
37931;SDS011;23758;42.640;23.302;2023-10-19T14:15:16;2.17;;;2.03;;
37931;SDS011;23758;42.640;23.302;2023-10-19T14:17:46;2.00;;;1.90;;
37931;SDS011;23758;42.640;23.302;2023-10-19T14:20:16;2.22;;;2.13;;
37931;SDS011;23758;42.640;23.302;2023-10-19T14:22:42;2.15;;;2.05;;
37931;SDS011;23758;42.640;23.302;2023-10-19T14:25:10;2.10;;;2.00;;
37931;SDS011;23758;42.640;23.302;2023-10-19T14:27:43;2.42;;;2.22;;
37931;SDS011;23758;42.640;23.302;2023-10-19T14:32:39;2.10;;;2.00;;
37931;SDS011;23758;42.640;23.302;2023-10-19T14:35:10;2.00;;;1.90;;
37931;SDS011;23758;42.640;23.302;2023-10-19T14:37:40;1.90;;;1.80;;
37931;SDS011;23758;42.640;23.302;2023-10-19T14:40:08;2.05;;;1.95;;
37931;SDS011;23758;42.640;23.302;2023-10-19T14:42:38;2.15;;;2.05;;
37931;SDS011;23758;42.640;23.302;2023-10-19T14:45:08;2.00;;;1.90;;
37931;SDS011;23758;42.640;23.302;2023-10-19T14:47:38;2.00;;;1.90;;
37931;SDS011;23758;42.640;23.302;2023-10-19T14:50:07;2.10;;;2.00;;
37931;SDS011;23758;42.640;23.302;2023-10-19T14:52:35;1.95;;;1.85;;
37931;SDS011;23758;42.640;23.302;2023-10-19T14:55:00;2.65;;;2.45;;
37931;SDS011;23758;42.640;23.302;2023-10-19T14:57:26;2.00;;;1.90;;
37931;SDS011;23758;42.640;23.302;2023-10-19T14:59:52;2.20;;;2.10;;
37931;SDS011;23758;42.640;23.302;2023-10-19T15:02:18;2.50;;;2.30;;
37931;SDS011;23758;42.640;23.302;2023-10-19T15:04:48;2.47;;;2.28;;